Goleta, CA

12:40 PM PST on February 20, 2018 (GMT -0800)
MOXELC | | Change Station
Active Advisory: Freeze Warning

Elev 127 ft 34.46 °N, 120.03 °W | Updated 4 days ago

Clear
Clear
--
Feels Like --
N
4.0
Wind Variable Wind from WSW

Today
High -- | Low -- °F
--% Chance of Precip.
Yesterday
High -- | Low -- °F
Precip. -- in
Pressure 30.17 in
Visibility 10.0 miles
Clouds Clear
Dew Point Not available.
Humidity Not available.
Rainfall 0.00 in
Snow Depth Not available.
6:39 AM 5:48 PM
Waxing Crescent, 24% visible
METAR KSBA 201953Z 22010KT 10SM CLR 13/M04 A3017 RMK AO2 SLP216 T01281044
Pressure 30.17 in
Visibility 10.0 miles
Clouds Clear
Dew Point Not available.
Humidity Not available.
Rainfall 0.00 in
Snow Depth Not available.
6:39 AM 5:48 PM
Waxing Crescent, 24% visible
METAR KSBA 201953Z 22010KT 10SM CLR 13/M04 A3017 RMK AO2 SLP216 T01281044

Get Your Daily Forecast Email!

Thanks for signing up!

Be on the lookout for a verification email in your inbox.

You'll start receiving severe weather alerts in your inbox..

×

10-Day Weather Forecast

Almanac

Astronomy

Feb. 20, 2018 Rise Set
Actual Time
Civil Twilight
Nautical Twilight
Astronomical Twilight
Moon
Length of Visible Light
Length of Day
Tomorrow will be .
, % of the Moon is Illuminated

Today's Extremes

State Highs State Lows

Community

WunderPhotos

Category 6

Welcome to Category 6. This is the collective home for Weather Underground's featured writeups by Dr. Jeff Masters (right), Bob Henson (left), Chris Burt, and other regular contributors.

Nearby

Air Quality

  Air Quality AQ Index Pollutant
Not available.

Snow Depth

Station Depth Elevation

Earthquake Activity

City Distance Mag. Time & Date
Minimum magnitude displayed is 2.5.

Coastal Water Temperatures

Place Temperature

Stations

Nearby Weather Stations

Station Location Temp. Windchill Dew Point Humidity Wind Precip. Elev Updated Type
                   

Watches & Warnings

Freeze Warning
Issued: 8:53 AM PST Feb. 20, 2018 – National Weather Service

... Freeze warning remains in effect from 1 am to 9 am PST
Wednesday...
... Freeze warning will expire at 9 am PST this morning...

* temperature... low temperatures between 29 and 32 degrees are
expected Wednesday morning.

* Impacts... sub-freezing temperatures can kill crops and
sensitive vegetation, and harm outdoor pets and livestock.
Extended exposure to cold can cause hypothermia.

Precautionary/preparedness actions...

A freeze warning means temperatures 29 and 32 for two or more
consecutive hours are imminent. Protective measures to save crops
and sensitive vegetation should be taken. Vulnerable animals and
pets should be kept indoors in a house or barn.